sensor_id;sensor_type;location;lat;lon;timestamp;temperature;humidity
27224;DHT22;14965;50.660;13.226;2023-08-12T00:01:04;16.40;99.90
27224;DHT22;14965;50.660;13.226;2023-08-12T00:03:31;16.40;99.90
27224;DHT22;14965;50.660;13.226;2023-08-12T00:05:58;16.40;99.90
27224;DHT22;14965;50.660;13.226;2023-08-12T00:08:24;16.40;99.90
27224;DHT22;14965;50.660;13.226;2023-08-12T00:10:49;16.40;99.90
27224;DHT22;14965;50.660;13.226;2023-08-12T00:13:15;16.40;99.90
27224;DHT22;14965;50.660;13.226;2023-08-12T00:15:41;16.40;99.90
27224;DHT22;14965;50.660;13.226;2023-08-12T00:18:07;16.40;99.90
27224;DHT22;14965;50.660;13.226;2023-08-12T00:20:34;16.40;99.90
27224;DHT22;14965;50.660;13.226;2023-08-12T00:23:00;16.30;99.90
27224;DHT22;14965;50.660;13.226;2023-08-12T00:25:26;16.30;99.90
27224;DHT22;14965;50.660;13.226;2023-08-12T00:27:52;16.30;99.90
27224;DHT22;14965;50.660;13.226;2023-08-12T00:30:18;16.20;99.90
27224;DHT22;14965;50.660;13.226;2023-08-12T00:32:44;16.20;99.90
27224;DHT22;14965;50.660;13.226;2023-08-12T00:35:10;16.20;99.90
27224;DHT22;14965;50.660;13.226;2023-08-12T00:37:37;16.10;99.90
27224;DHT22;14965;50.660;13.226;2023-08-12T00:40:04;16.10;99.90
27224;DHT22;14965;50.660;13.226;2023-08-12T00:42:31;16.10;99.90
27224;DHT22;14965;50.660;13.226;2023-08-12T00:44:57;16.00;99.90
27224;DHT22;14965;50.660;13.226;2023-08-12T00:47:23;16.00;99.90
27224;DHT22;14965;50.660;13.226;2023-08-12T00:49:50;16.00;99.90
27224;DHT22;14965;50.660;13.226;2023-08-12T00:52:17;16.00;99.90
27224;DHT22;14965;50.660;13.226;2023-08-12T00:54:45;15.90;99.90
27224;DHT22;14965;50.660;13.226;2023-08-12T00:57:11;15.90;99.90
27224;DHT22;14965;50.660;13.226;2023-08-12T00:59:38;15.90;99.90
27224;DHT22;14965;50.660;13.226;2023-08-12T01:02:07;15.80;99.90
27224;DHT22;14965;50.660;13.226;2023-08-12T01:04:34;15.80;99.90
27224;DHT22;14965;50.660;13.226;2023-08-12T01:07:00;15.70;99.90
27224;DHT22;14965;50.660;13.226;2023-08-12T01:09:26;15.70;99.90
27224;DHT22;14965;50.660;13.226;2023-08-12T01:11:59;15.70;99.90
27224;DHT22;14965;50.660;13.226;2023-08-12T01:14:38;15.70;99.90
27224;DHT22;14965;50.660;13.226;2023-08-12T01:17:11;15.70;99.90
27224;DHT22;14965;50.660;13.226;2023-08-12T01:19:40;15.70;99.90
27224;DHT22;14965;50.660;13.226;2023-08-12T01:22:09;15.70;99.90
27224;DHT22;14965;50.660;13.226;2023-08-12T01:24:38;15.60;99.90
27224;DHT22;14965;50.660;13.226;2023-08-12T01:27:06;15.60;99.90
27224;DHT22;14965;50.660;13.226;2023-08-12T01:29:34;15.60;99.90
27224;DHT22;14965;50.660;13.226;2023-08-12T01:32:09;15.60;99.90
27224;DHT22;14965;50.660;13.226;2023-08-12T01:34:43;15.60;99.90
27224;DHT22;14965;50.660;13.226;2023-08-12T01:37:17;15.60;99.90
27224;DHT22;14965;50.660;13.226;2023-08-12T01:39:52;15.60;99.90
27224;DHT22;14965;50.660;13.226;2023-08-12T01:42:20;15.70;99.90
27224;DHT22;14965;50.660;13.226;2023-08-12T01:44:48;15.70;99.90
27224;DHT22;14965;50.660;13.226;2023-08-12T01:47:15;15.70;99.90
27224;DHT22;14965;50.660;13.226;2023-08-12T01:49:41;15.80;99.90
27224;DHT22;14965;50.660;13.226;2023-08-12T01:52:07;15.70;99.90
27224;DHT22;14965;50.660;13.226;2023-08-12T01:54:33;15.70;99.90
27224;DHT22;14965;50.660;13.226;2023-08-12T01:57:01;15.70;99.90
27224;DHT22;14965;50.660;13.226;2023-08-12T01:59:27;15.60;99.90
27224;DHT22;14965;50.660;13.226;2023-08-12T02:01:53;15.70;99.90
27224;DHT22;14965;50.660;13.226;2023-08-12T02:04:19;15.70;99.90
27224;DHT22;14965;50.660;13.226;2023-08-12T02:06:45;15.80;99.90
27224;DHT22;14965;50.660;13.226;2023-08-12T02:09:11;15.90;99.90
27224;DHT22;14965;50.660;13.226;2023-08-12T02:11:37;15.90;99.90
27224;DHT22;14965;50.660;13.226;2023-08-12T02:14:04;15.90;99.90
27224;DHT22;14965;50.660;13.226;2023-08-12T02:16:30;16.00;99.90
27224;DHT22;14965;50.660;13.226;2023-08-12T02:18:56;16.00;99.90
27224;DHT22;14965;50.660;13.226;2023-08-12T02:21:22;16.00;99.90
27224;DHT22;14965;50.660;13.226;2023-08-12T02:23:48;16.00;99.90
27224;DHT22;14965;50.660;13.226;2023-08-12T02:26:13;16.00;99.90
27224;DHT22;14965;50.660;13.226;2023-08-12T02:28:39;15.90;99.90
27224;DHT22;14965;50.660;13.226;2023-08-12T02:31:07;15.90;99.90
27224;DHT22;14965;50.660;13.226;2023-08-12T02:33:33;15.90;99.90
27224;DHT22;14965;50.660;13.226;2023-08-12T02:35:59;15.90;99.90
27224;DHT22;14965;50.660;13.226;2023-08-12T02:38:25;15.90;99.90
27224;DHT22;14965;50.660;13.226;2023-08-12T02:40:51;15.90;99.90
27224;DHT22;14965;50.660;13.226;2023-08-12T02:43:17;15.90;99.90
27224;DHT22;14965;50.660;13.226;2023-08-12T02:45:43;15.90;99.90
27224;DHT22;14965;50.660;13.226;2023-08-12T02:48:11;16.00;99.90
27224;DHT22;14965;50.660;13.226;2023-08-12T02:50:37;16.00;99.90
27224;DHT22;14965;50.660;13.226;2023-08-12T02:53:03;16.00;99.90
27224;DHT22;14965;50.660;13.226;2023-08-12T02:55:30;16.00;99.90
27224;DHT22;14965;50.660;13.226;2023-08-12T02:57:56;16.00;99.90
27224;DHT22;14965;50.660;13.226;2023-08-12T03:00:22;16.00;99.90
27224;DHT22;14965;50.660;13.226;2023-08-12T03:02:47;16.10;99.90
27224;DHT22;14965;50.660;13.226;2023-08-12T03:05:15;16.10;99.90
27224;DHT22;14965;50.660;13.226;2023-08-12T03:07:41;16.10;99.90
27224;DHT22;14965;50.660;13.226;2023-08-12T03:10:08;16.10;99.90
27224;DHT22;14965;50.660;13.226;2023-08-12T03:12:35;16.20;99.90
27224;DHT22;14965;50.660;13.226;2023-08-12T03:15:01;16.20;99.90
27224;DHT22;14965;50.660;13.226;2023-08-12T03:17:27;16.20;99.90
27224;DHT22;14965;50.660;13.226;2023-08-12T03:19:53;16.20;99.90
27224;DHT22;14965;50.660;13.226;2023-08-12T03:22:21;16.30;99.90
27224;DHT22;14965;50.660;13.226;2023-08-12T03:24:48;16.30;99.90
27224;DHT22;14965;50.660;13.226;2023-08-12T03:27:14;16.30;99.90
27224;DHT22;14965;50.660;13.226;2023-08-12T03:29:40;16.20;99.90
27224;DHT22;14965;50.660;13.226;2023-08-12T03:32:06;16.20;99.90
27224;DHT22;14965;50.660;13.226;2023-08-12T03:34:32;16.20;99.90
27224;DHT22;14965;50.660;13.226;2023-08-12T03:36:58;16.20;99.90
27224;DHT22;14965;50.660;13.226;2023-08-12T03:39:25;16.30;99.90
27224;DHT22;14965;50.660;13.226;2023-08-12T03:41:51;16.30;99.90
27224;DHT22;14965;50.660;13.226;2023-08-12T03:44:17;16.30;99.90
27224;DHT22;14965;50.660;13.226;2023-08-12T03:46:43;16.30;99.90
27224;DHT22;14965;50.660;13.226;2023-08-12T03:49:08;16.40;99.90
27224;DHT22;14965;50.660;13.226;2023-08-12T03:51:34;16.30;99.90
27224;DHT22;14965;50.660;13.226;2023-08-12T03:54:00;16.30;99.90
27224;DHT22;14965;50.660;13.226;2023-08-12T03:56:28;16.30;99.90
27224;DHT22;14965;50.660;13.226;2023-08-12T03:58:54;16.20;99.90
27224;DHT22;14965;50.660;13.226;2023-08-12T04:01:20;16.20;99.90
27224;DHT22;14965;50.660;13.226;2023-08-12T04:03:46;16.20;99.90
27224;DHT22;14965;50.660;13.226;2023-08-12T04:06:12;16.20;99.90
27224;DHT22;14965;50.660;13.226;2023-08-12T04:08:38;16.30;99.90
27224;DHT22;14965;50.660;13.226;2023-08-12T04:11:04;16.40;99.90
27224;DHT22;14965;50.660;13.226;2023-08-12T04:13:31;16.40;99.90
27224;DHT22;14965;50.660;13.226;2023-08-12T04:15:57;16.50;99.90
27224;DHT22;14965;50.660;13.226;2023-08-12T04:18:23;16.60;99.90
27224;DHT22;14965;50.660;13.226;2023-08-12T04:20:49;16.60;99.90
27224;DHT22;14965;50.660;13.226;2023-08-12T04:23:16;16.60;99.90
27224;DHT22;14965;50.660;13.226;2023-08-12T04:25:43;16.60;99.90
27224;DHT22;14965;50.660;13.226;2023-08-12T04:28:09;16.70;99.90
27224;DHT22;14965;50.660;13.226;2023-08-12T04:30:56;16.70;99.90
27224;DHT22;14965;50.660;13.226;2023-08-12T04:33:42;16.80;99.90
27224;DHT22;14965;50.660;13.226;2023-08-12T04:36:09;17.00;99.90
27224;DHT22;14965;50.660;13.226;2023-08-12T04:38:34;17.10;99.90
27224;DHT22;14965;50.660;13.226;2023-08-12T04:41:00;17.30;99.90
27224;DHT22;14965;50.660;13.226;2023-08-12T04:43:26;18.00;99.90
27224;DHT22;14965;50.660;13.226;2023-08-12T04:45:52;19.00;99.90
27224;DHT22;14965;50.660;13.226;2023-08-12T04:48:19;20.40;99.90
27224;DHT22;14965;50.660;13.226;2023-08-12T04:50:45;21.70;99.90
27224;DHT22;14965;50.660;13.226;2023-08-12T04:53:11;23.00;99.90
27224;DHT22;14965;50.660;13.226;2023-08-12T04:55:37;24.00;99.90
27224;DHT22;14965;50.660;13.226;2023-08-12T04:58:03;24.80;99.90
27224;DHT22;14965;50.660;13.226;2023-08-12T05:00:29;25.40;99.90
27224;DHT22;14965;50.660;13.226;2023-08-12T05:02:55;26.10;99.90
27224;DHT22;14965;50.660;13.226;2023-08-12T05:05:23;26.90;99.90
27224;DHT22;14965;50.660;13.226;2023-08-12T05:07:49;27.60;98.40
27224;DHT22;14965;50.660;13.226;2023-08-12T05:10:15;28.20;96.30
27224;DHT22;14965;50.660;13.226;2023-08-12T05:12:42;28.50;94.50
27224;DHT22;14965;50.660;13.226;2023-08-12T05:15:08;28.90;93.30
27224;DHT22;14965;50.660;13.226;2023-08-12T05:17:35;29.40;92.30
27224;DHT22;14965;50.660;13.226;2023-08-12T05:20:01;29.80;91.10
27224;DHT22;14965;50.660;13.226;2023-08-12T05:22:28;30.40;89.30
27224;DHT22;14965;50.660;13.226;2023-08-12T05:24:54;30.60;86.70
27224;DHT22;14965;50.660;13.226;2023-08-12T05:27:20;30.90;84.90
27224;DHT22;14965;50.660;13.226;2023-08-12T05:29:46;31.30;82.90
27224;DHT22;14965;50.660;13.226;2023-08-12T05:32:12;31.50;81.10
27224;DHT22;14965;50.660;13.226;2023-08-12T05:34:38;31.10;81.00
27224;DHT22;14965;50.660;13.226;2023-08-12T05:37:04;30.10;82.10
27224;DHT22;14965;50.660;13.226;2023-08-12T05:39:31;28.80;84.70
27224;DHT22;14965;50.660;13.226;2023-08-12T05:41:57;27.70;87.70
27224;DHT22;14965;50.660;13.226;2023-08-12T05:44:23;26.80;90.20
27224;DHT22;14965;50.660;13.226;2023-08-12T05:46:49;26.10;91.40
27224;DHT22;14965;50.660;13.226;2023-08-12T05:49:15;25.60;93.00
27224;DHT22;14965;50.660;13.226;2023-08-12T05:51:40;26.00;93.20
27224;DHT22;14965;50.660;13.226;2023-08-12T05:54:06;27.30;92.20
27224;DHT22;14965;50.660;13.226;2023-08-12T05:56:34;28.70;91.10
27224;DHT22;14965;50.660;13.226;2023-08-12T05:59:00;30.00;87.40
27224;DHT22;14965;50.660;13.226;2023-08-12T06:01:26;30.90;85.70
27224;DHT22;14965;50.660;13.226;2023-08-12T06:03:52;31.50;82.20
27224;DHT22;14965;50.660;13.226;2023-08-12T06:06:17;31.90;81.20
27224;DHT22;14965;50.660;13.226;2023-08-12T06:08:43;32.20;80.00
27224;DHT22;14965;50.660;13.226;2023-08-12T06:11:09;32.00;79.80
27224;DHT22;14965;50.660;13.226;2023-08-12T06:13:36;31.90;80.10
27224;DHT22;14965;50.660;13.226;2023-08-12T06:16:02;31.40;77.70
27224;DHT22;14965;50.660;13.226;2023-08-12T06:18:29;31.10;80.20
27224;DHT22;14965;50.660;13.226;2023-08-12T06:20:54;30.80;81.30
27224;DHT22;14965;50.660;13.226;2023-08-12T06:23:20;30.50;81.10
27224;DHT22;14965;50.660;13.226;2023-08-12T06:25:46;30.20;83.30
27224;DHT22;14965;50.660;13.226;2023-08-12T06:28:12;29.90;83.10
27224;DHT22;14965;50.660;13.226;2023-08-12T06:30:39;29.70;83.20
27224;DHT22;14965;50.660;13.226;2023-08-12T06:33:05;29.50;82.10
27224;DHT22;14965;50.660;13.226;2023-08-12T06:35:31;28.90;82.90
27224;DHT22;14965;50.660;13.226;2023-08-12T06:37:57;28.20;84.90
27224;DHT22;14965;50.660;13.226;2023-08-12T06:40:23;27.60;86.90
27224;DHT22;14965;50.660;13.226;2023-08-12T06:42:49;27.00;88.80
27224;DHT22;14965;50.660;13.226;2023-08-12T06:45:15;26.60;90.50
27224;DHT22;14965;50.660;13.226;2023-08-12T06:47:42;26.40;91.00
27224;DHT22;14965;50.660;13.226;2023-08-12T06:50:08;26.10;92.90
27224;DHT22;14965;50.660;13.226;2023-08-12T06:52:34;25.90;92.20
27224;DHT22;14965;50.660;13.226;2023-08-12T06:55:00;25.80;92.30
27224;DHT22;14965;50.660;13.226;2023-08-12T06:57:26;25.60;93.10
27224;DHT22;14965;50.660;13.226;2023-08-12T06:59:52;25.50;93.60
27224;DHT22;14965;50.660;13.226;2023-08-12T07:02:18;25.40;94.10
27224;DHT22;14965;50.660;13.226;2023-08-12T07:04:48;25.30;93.90
27224;DHT22;14965;50.660;13.226;2023-08-12T07:07:14;25.20;94.60
27224;DHT22;14965;50.660;13.226;2023-08-12T07:09:39;25.20;94.40
27224;DHT22;14965;50.660;13.226;2023-08-12T07:12:06;25.10;94.60
27224;DHT22;14965;50.660;13.226;2023-08-12T07:14:32;25.00;93.80
27224;DHT22;14965;50.660;13.226;2023-08-12T07:16:58;24.90;94.70
27224;DHT22;14965;50.660;13.226;2023-08-12T07:19:24;24.70;94.30
27224;DHT22;14965;50.660;13.226;2023-08-12T07:21:51;24.60;95.20
27224;DHT22;14965;50.660;13.226;2023-08-12T07:24:18;24.60;95.70
27224;DHT22;14965;50.660;13.226;2023-08-12T07:26:44;24.60;95.10
27224;DHT22;14965;50.660;13.226;2023-08-12T07:29:10;24.50;94.70
27224;DHT22;14965;50.660;13.226;2023-08-12T07:31:35;24.40;95.20
27224;DHT22;14965;50.660;13.226;2023-08-12T07:34:01;24.50;95.90
27224;DHT22;14965;50.660;13.226;2023-08-12T07:36:27;24.70;95.60
27224;DHT22;14965;50.660;13.226;2023-08-12T07:38:55;25.00;95.30
27224;DHT22;14965;50.660;13.226;2023-08-12T07:41:21;25.10;95.20
27224;DHT22;14965;50.660;13.226;2023-08-12T07:43:46;25.20;94.40
27224;DHT22;14965;50.660;13.226;2023-08-12T07:46:12;25.40;94.80
27224;DHT22;14965;50.660;13.226;2023-08-12T07:48:38;25.50;94.70
27224;DHT22;14965;50.660;13.226;2023-08-12T07:51:04;25.60;94.60
27224;DHT22;14965;50.660;13.226;2023-08-12T07:53:30;25.80;93.80
27224;DHT22;14965;50.660;13.226;2023-08-12T07:55:57;25.90;94.20
27224;DHT22;14965;50.660;13.226;2023-08-12T07:58:23;26.10;94.60
27224;DHT22;14965;50.660;13.226;2023-08-12T08:00:52;26.10;93.60
27224;DHT22;14965;50.660;13.226;2023-08-12T08:03:18;26.20;92.40
27224;DHT22;14965;50.660;13.226;2023-08-12T08:05:44;26.20;91.80
27224;DHT22;14965;50.660;13.226;2023-08-12T08:08:10;26.10;92.40
27224;DHT22;14965;50.660;13.226;2023-08-12T08:10:35;26.10;91.80
27224;DHT22;14965;50.660;13.226;2023-08-12T08:13:03;26.10;93.40
27224;DHT22;14965;50.660;13.226;2023-08-12T08:15:29;26.00;92.70
27224;DHT22;14965;50.660;13.226;2023-08-12T08:17:55;25.90;92.90
27224;DHT22;14965;50.660;13.226;2023-08-12T08:20:21;25.90;92.20
27224;DHT22;14965;50.660;13.226;2023-08-12T08:22:47;26.00;93.10
27224;DHT22;14965;50.660;13.226;2023-08-12T08:25:13;26.10;92.60
27224;DHT22;14965;50.660;13.226;2023-08-12T08:27:39;26.10;91.70
27224;DHT22;14965;50.660;13.226;2023-08-12T08:30:08;26.30;93.70
27224;DHT22;14965;50.660;13.226;2023-08-12T08:32:35;26.50;93.30
27224;DHT22;14965;50.660;13.226;2023-08-12T08:35:01;26.50;93.20
27224;DHT22;14965;50.660;13.226;2023-08-12T08:37:28;26.60;92.80
27224;DHT22;14965;50.660;13.226;2023-08-12T08:39:54;26.70;93.20
27224;DHT22;14965;50.660;13.226;2023-08-12T08:42:20;26.80;92.90
27224;DHT22;14965;50.660;13.226;2023-08-12T08:44:49;27.00;92.90
27224;DHT22;14965;50.660;13.226;2023-08-12T08:47:25;27.30;92.50
27224;DHT22;14965;50.660;13.226;2023-08-12T08:49:53;27.20;91.20
27224;DHT22;14965;50.660;13.226;2023-08-12T08:52:20;27.30;90.80
27224;DHT22;14965;50.660;13.226;2023-08-12T08:54:48;27.30;91.50
27224;DHT22;14965;50.660;13.226;2023-08-12T08:57:14;27.50;90.10
27224;DHT22;14965;50.660;13.226;2023-08-12T08:59:41;27.70;90.80
27224;DHT22;14965;50.660;13.226;2023-08-12T09:02:13;27.80;91.50
27224;DHT22;14965;50.660;13.226;2023-08-12T09:04:43;28.00;91.40
27224;DHT22;14965;50.660;13.226;2023-08-12T09:07:10;28.30;89.90
27224;DHT22;14965;50.660;13.226;2023-08-12T09:09:37;28.40;90.20
27224;DHT22;14965;50.660;13.226;2023-08-12T09:12:05;28.30;90.50
27224;DHT22;14965;50.660;13.226;2023-08-12T09:14:33;28.20;90.00
27224;DHT22;14965;50.660;13.226;2023-08-12T09:17:00;28.00;88.60
27224;DHT22;14965;50.660;13.226;2023-08-12T09:19:27;27.90;88.30
27224;DHT22;14965;50.660;13.226;2023-08-12T09:21:55;27.80;89.60
27224;DHT22;14965;50.660;13.226;2023-08-12T09:24:24;27.70;89.00
27224;DHT22;14965;50.660;13.226;2023-08-12T09:26:51;27.60;90.10
27224;DHT22;14965;50.660;13.226;2023-08-12T09:29:17;27.50;88.40
27224;DHT22;14965;50.660;13.226;2023-08-12T09:31:43;27.40;89.70
27224;DHT22;14965;50.660;13.226;2023-08-12T09:34:09;27.30;90.50
27224;DHT22;14965;50.660;13.226;2023-08-12T09:36:36;27.20;90.10
27224;DHT22;14965;50.660;13.226;2023-08-12T09:39:07;27.10;91.30
27224;DHT22;14965;50.660;13.226;2023-08-12T09:41:33;27.00;90.60
27224;DHT22;14965;50.660;13.226;2023-08-12T09:44:01;27.00;91.00
27224;DHT22;14965;50.660;13.226;2023-08-12T09:46:27;26.90;91.40
27224;DHT22;14965;50.660;13.226;2023-08-12T09:48:53;26.90;91.70
27224;DHT22;14965;50.660;13.226;2023-08-12T09:56:13;26.80;91.10
27224;DHT22;14965;50.660;13.226;2023-08-12T09:58:44;26.70;90.90
27224;DHT22;14965;50.660;13.226;2023-08-12T10:01:13;26.60;91.20
27224;DHT22;14965;50.660;13.226;2023-08-12T10:03:44;26.60;91.50
27224;DHT22;14965;50.660;13.226;2023-08-12T10:06:15;26.50;91.50
27224;DHT22;14965;50.660;13.226;2023-08-12T10:08:42;26.50;92.60
27224;DHT22;14965;50.660;13.226;2023-08-12T10:11:11;26.50;93.50
27224;DHT22;14965;50.660;13.226;2023-08-12T10:13:39;26.50;92.40
27224;DHT22;14965;50.660;13.226;2023-08-12T10:16:06;26.50;91.90
27224;DHT22;14965;50.660;13.226;2023-08-12T10:18:35;26.60;92.30
27224;DHT22;14965;50.660;13.226;2023-08-12T10:21:02;26.80;92.30
27224;DHT22;14965;50.660;13.226;2023-08-12T10:23:28;26.80;91.60
27224;DHT22;14965;50.660;13.226;2023-08-12T10:25:54;26.70;91.60
27224;DHT22;14965;50.660;13.226;2023-08-12T10:28:22;26.60;91.70
27224;DHT22;14965;50.660;13.226;2023-08-12T10:30:48;26.60;92.50
27224;DHT22;14965;50.660;13.226;2023-08-12T10:33:15;26.70;91.60
27224;DHT22;14965;50.660;13.226;2023-08-12T10:35:43;26.80;92.20
27224;DHT22;14965;50.660;13.226;2023-08-12T10:38:12;26.90;91.70
27224;DHT22;14965;50.660;13.226;2023-08-12T10:40:40;26.80;92.30
27224;DHT22;14965;50.660;13.226;2023-08-12T10:43:05;26.80;92.70
27224;DHT22;14965;50.660;13.226;2023-08-12T10:45:44;26.80;93.30
27224;DHT22;14965;50.660;13.226;2023-08-12T10:48:17;26.80;92.70
27224;DHT22;14965;50.660;13.226;2023-08-12T10:50:45;26.80;92.30
27224;DHT22;14965;50.660;13.226;2023-08-12T10:53:22;26.60;92.50
27224;DHT22;14965;50.660;13.226;2023-08-12T10:55:50;26.50;92.90
27224;DHT22;14965;50.660;13.226;2023-08-12T10:58:33;26.60;93.30
27224;DHT22;14965;50.660;13.226;2023-08-12T11:01:01;26.70;93.90
27224;DHT22;14965;50.660;13.226;2023-08-12T11:03:32;26.80;93.40
27224;DHT22;14965;50.660;13.226;2023-08-12T11:05:59;26.80;93.60
27224;DHT22;14965;50.660;13.226;2023-08-12T11:08:26;26.90;93.40
27224;DHT22;14965;50.660;13.226;2023-08-12T11:10:55;27.00;93.80
27224;DHT22;14965;50.660;13.226;2023-08-12T11:13:21;27.10;93.40
27224;DHT22;14965;50.660;13.226;2023-08-12T11:15:48;27.10;93.20
27224;DHT22;14965;50.660;13.226;2023-08-12T11:18:16;27.10;93.70
27224;DHT22;14965;50.660;13.226;2023-08-12T11:20:44;27.30;94.20
27224;DHT22;14965;50.660;13.226;2023-08-12T11:23:11;27.30;94.30
27224;DHT22;14965;50.660;13.226;2023-08-12T11:25:40;27.50;93.80
27224;DHT22;14965;50.660;13.226;2023-08-12T11:28:08;27.60;94.70
27224;DHT22;14965;50.660;13.226;2023-08-12T11:30:35;27.60;94.20
27224;DHT22;14965;50.660;13.226;2023-08-12T11:33:02;27.60;93.40
27224;DHT22;14965;50.660;13.226;2023-08-12T11:35:31;27.70;93.50
27224;DHT22;14965;50.660;13.226;2023-08-12T11:37:57;27.60;93.30
27224;DHT22;14965;50.660;13.226;2023-08-12T11:40:25;27.40;93.60
27224;DHT22;14965;50.660;13.226;2023-08-12T11:42:52;27.40;93.90
27224;DHT22;14965;50.660;13.226;2023-08-12T11:45:21;27.50;93.40
27224;DHT22;14965;50.660;13.226;2023-08-12T11:47:48;27.60;93.50
27224;DHT22;14965;50.660;13.226;2023-08-12T11:50:14;27.70;94.20
27224;DHT22;14965;50.660;13.226;2023-08-12T11:52:42;27.60;94.20
27224;DHT22;14965;50.660;13.226;2023-08-12T11:55:08;27.60;94.10
27224;DHT22;14965;50.660;13.226;2023-08-12T11:57:35;27.60;94.10
27224;DHT22;14965;50.660;13.226;2023-08-12T12:00:01;27.60;93.70
27224;DHT22;14965;50.660;13.226;2023-08-12T12:02:29;27.60;93.80
27224;DHT22;14965;50.660;13.226;2023-08-12T12:04:55;27.50;94.10
27224;DHT22;14965;50.660;13.226;2023-08-12T12:07:22;27.60;93.70
27224;DHT22;14965;50.660;13.226;2023-08-12T12:09:52;27.70;94.80
27224;DHT22;14965;50.660;13.226;2023-08-12T12:12:22;27.70;93.80
27224;DHT22;14965;50.660;13.226;2023-08-12T12:14:51;27.70;93.70
27224;DHT22;14965;50.660;13.226;2023-08-12T12:17:17;27.60;93.20
27224;DHT22;14965;50.660;13.226;2023-08-12T12:19:43;27.50;93.30
27224;DHT22;14965;50.660;13.226;2023-08-12T12:22:09;27.40;93.50
27224;DHT22;14965;50.660;13.226;2023-08-12T12:24:44;27.40;93.80
27224;DHT22;14965;50.660;13.226;2023-08-12T12:27:12;27.50;93.50
27224;DHT22;14965;50.660;13.226;2023-08-12T12:29:39;27.50;93.70
27224;DHT22;14965;50.660;13.226;2023-08-12T12:32:05;27.50;93.70
27224;DHT22;14965;50.660;13.226;2023-08-12T12:34:31;27.60;94.30
27224;DHT22;14965;50.660;13.226;2023-08-12T12:36:57;27.80;94.10
27224;DHT22;14965;50.660;13.226;2023-08-12T12:39:23;28.00;93.80
27224;DHT22;14965;50.660;13.226;2023-08-12T12:41:49;28.20;94.40
27224;DHT22;14965;50.660;13.226;2023-08-12T12:44:17;28.30;93.20
27224;DHT22;14965;50.660;13.226;2023-08-12T12:46:43;28.40;92.80
27224;DHT22;14965;50.660;13.226;2023-08-12T12:49:08;28.30;92.70
27224;DHT22;14965;50.660;13.226;2023-08-12T12:51:34;28.20;91.70
27224;DHT22;14965;50.660;13.226;2023-08-12T12:54:00;28.20;91.20
27224;DHT22;14965;50.660;13.226;2023-08-12T12:56:26;28.20;91.80
27224;DHT22;14965;50.660;13.226;2023-08-12T12:58:52;28.30;92.70
27224;DHT22;14965;50.660;13.226;2023-08-12T13:01:19;28.40;93.50
27224;DHT22;14965;50.660;13.226;2023-08-12T13:03:45;28.60;91.90
27224;DHT22;14965;50.660;13.226;2023-08-12T13:06:11;28.50;91.20
27224;DHT22;14965;50.660;13.226;2023-08-12T13:08:37;28.40;91.30
27224;DHT22;14965;50.660;13.226;2023-08-12T13:11:03;28.30;91.20
27224;DHT22;14965;50.660;13.226;2023-08-12T13:13:29;28.20;91.00
27224;DHT22;14965;50.660;13.226;2023-08-12T13:15:55;28.10;91.10
27224;DHT22;14965;50.660;13.226;2023-08-12T13:18:23;28.00;91.50
27224;DHT22;14965;50.660;13.226;2023-08-12T13:20:49;27.90;90.50
27224;DHT22;14965;50.660;13.226;2023-08-12T13:23:15;27.80;91.70
27224;DHT22;14965;50.660;13.226;2023-08-12T13:25:41;27.80;91.90
27224;DHT22;14965;50.660;13.226;2023-08-12T13:28:07;28.00;91.60
27224;DHT22;14965;50.660;13.226;2023-08-12T13:30:34;28.10;90.50
27224;DHT22;14965;50.660;13.226;2023-08-12T13:33:00;28.10;90.40
27224;DHT22;14965;50.660;13.226;2023-08-12T13:35:27;28.20;90.40
27224;DHT22;14965;50.660;13.226;2023-08-12T13:37:53;28.30;91.00
27224;DHT22;14965;50.660;13.226;2023-08-12T13:40:19;28.40;90.90
27224;DHT22;14965;50.660;13.226;2023-08-12T13:42:45;28.50;90.90
27224;DHT22;14965;50.660;13.226;2023-08-12T13:45:11;28.50;90.40
27224;DHT22;14965;50.660;13.226;2023-08-12T13:47:38;28.60;90.70
27224;DHT22;14965;50.660;13.226;2023-08-12T13:50:05;28.60;90.30
27224;DHT22;14965;50.660;13.226;2023-08-12T13:52:33;28.50;89.80
27224;DHT22;14965;50.660;13.226;2023-08-12T13:54:59;28.30;90.10
27224;DHT22;14965;50.660;13.226;2023-08-12T13:57:25;28.20;91.30
27224;DHT22;14965;50.660;13.226;2023-08-12T13:59:51;28.10;91.40
27224;DHT22;14965;50.660;13.226;2023-08-12T14:02:17;27.90;91.50
27224;DHT22;14965;50.660;13.226;2023-08-12T14:04:43;27.80;92.50
27224;DHT22;14965;50.660;13.226;2023-08-12T14:07:08;27.80;91.90
27224;DHT22;14965;50.660;13.226;2023-08-12T14:09:36;27.80;92.70
27224;DHT22;14965;50.660;13.226;2023-08-12T14:12:02;27.80;91.20
27224;DHT22;14965;50.660;13.226;2023-08-12T14:14:30;27.70;91.20
27224;DHT22;14965;50.660;13.226;2023-08-12T14:16:56;27.70;91.80
27224;DHT22;14965;50.660;13.226;2023-08-12T14:19:22;27.70;92.70
27224;DHT22;14965;50.660;13.226;2023-08-12T14:21:48;27.70;93.20
27224;DHT22;14965;50.660;13.226;2023-08-12T14:24:14;27.60;91.90
27224;DHT22;14965;50.660;13.226;2023-08-12T14:26:41;27.60;93.00
27224;DHT22;14965;50.660;13.226;2023-08-12T14:29:07;27.60;92.60
27224;DHT22;14965;50.660;13.226;2023-08-12T14:31:33;27.50;92.40
27224;DHT22;14965;50.660;13.226;2023-08-12T14:34:01;27.40;91.30
27224;DHT22;14965;50.660;13.226;2023-08-12T14:36:27;27.30;91.50
27224;DHT22;14965;50.660;13.226;2023-08-12T14:38:53;27.30;92.20
27224;DHT22;14965;50.660;13.226;2023-08-12T14:41:19;27.20;91.90
27224;DHT22;14965;50.660;13.226;2023-08-12T14:43:46;27.20;92.70
27224;DHT22;14965;50.660;13.226;2023-08-12T14:46:12;27.30;91.70
27224;DHT22;14965;50.660;13.226;2023-08-12T14:48:38;27.40;91.70
27224;DHT22;14965;50.660;13.226;2023-08-12T14:51:04;27.50;91.60
27224;DHT22;14965;50.660;13.226;2023-08-12T14:53:30;27.50;91.40
27224;DHT22;14965;50.660;13.226;2023-08-12T14:55:56;27.40;90.60
27224;DHT22;14965;50.660;13.226;2023-08-12T14:58:23;27.30;91.70
27224;DHT22;14965;50.660;13.226;2023-08-12T15:00:51;27.30;91.80
27224;DHT22;14965;50.660;13.226;2023-08-12T15:03:17;27.20;91.60
27224;DHT22;14965;50.660;13.226;2023-08-12T15:05:43;27.20;91.70
27224;DHT22;14965;50.660;13.226;2023-08-12T15:08:09;27.20;91.80
27224;DHT22;14965;50.660;13.226;2023-08-12T15:10:35;27.10;91.20
27224;DHT22;14965;50.660;13.226;2023-08-12T15:13:01;27.00;91.40
27224;DHT22;14965;50.660;13.226;2023-08-12T15:15:27;27.00;92.30
27224;DHT22;14965;50.660;13.226;2023-08-12T15:17:55;27.00;92.70